首页
METAR-TAF:

METAR-TAF

机场 :

印第安纳波利斯国际机场

印第安納波利斯, 印第安纳州, 美国

纬度: 39-43-30N, 经度: 086-16-55W, 海拔: 243米

当前天气观测

该预报发布于54分钟前的07:54 UTC
风速9节,风向南转西南
温度 17°C
湿度 63%
气压 1013 hPa
能見度: 16.1公里
散云层高于17000英尺
多云层高于22000英尺

METAR: KIND 230754Z 21009KT 10SM SCT170 BKN220 17/10 A2992 RMK AO2 SLP125 T01720100

时间: 04:48 (08:48 UTC)

预报

该预报发布于29分钟前的08:19 UTC
预报有效从23日的 08点(UTC)到 24日的 12点(UTC)
风速11节,风向西南
能見度: 10公里
散云层高于5000英尺
散云层高于10000英尺
从 23日的 1200点(UTC)
风速12节,风向西转西南
能見度: 10公里
多云层高于5000英尺
从 23日的 1500点(UTC)
风速10节,风向西,有时为18节阵风
能見度: 10公里
多云层高于2500英尺
从 23日的 2300点(UTC)
风速8节,风向北转西北
能見度: 10公里
多云层高于3500英尺
从 24日的 0200点(UTC)
风速5节,风向
能見度: 10公里
散云层高于6000英尺

TAF: KIND 230819Z 2308/2412 22011KT P6SM SCT050 SCT100 FM231200 24012KT P6SM BKN050 FM231500 27010G18KT P6SM BKN025 FM232300 33008KT P6SM BKN035 FM240200 35005KT P6SM SCT060

超过4000个机场的气象观测和天气预报(METAR&TAF报告)。

可查询的气象台以黄色和红色小点在地图上表示。

将鼠标移到小点上方,可查看气象台名称。

然后点击查看天气观测和预报。

如需切换地图:点击带黑十字的绿色按钮放大地图;点击带横线的绿色按钮缩小地图;或者点击绿色箭头查看邻近地区的地图。


METAR-TAF: